Pagrindinis puslapis
METAR-TAF:

METAR-TAF

Oro uostai :

Konija, Turkija

platuma: 37-58N, ilguma: 032-33E, Aukštis: 1032 m

Dabartinis oras

Ataskaita buvo paskelbta 1 valandą ir 25 minutes, ne 05:50 UTC
Ramus vėjas
Temperatūra 17°C
Drėgmė 45%
Slėgis 1011 hPa
Matomumas 10 km arba daugiau
nėra debesų žemiau 1500 m ir nėra kamuolinių lietaus debesų

METAR: LTAN 010550Z 00000KT CAVOK 17/05 Q1011 NOSIG

Laikas: 10:15 (07:15 UTC)

Prognozė

Ataskaita buvo paskelbta 2 valandos ir 35 minutes, ne 04:40 UTC
Prognozė galioja nuo 01 metu 06 UTC su 01 metu 15 UTC
Vėjas 7 kt iš Šiaurės/Šiaurės Vakarų
Matomumas 10 km arba daugiau
nėra debesų žemiau 1500 m ir nėra kamuolinių lietaus debesų
Tapsmas
nuo 01 metu 07 UTC su 01 metu 09 UTC
Mažai debesys ne aukštis 4000 ft

TAF: LTAN 010440Z 0106/0115 34007KT CAVOK BECMG 0107/0109 FEW040

Orai ataskaitas ir orų prognozės (METAR, TAF).

turimą stotys yra geltonos ir raudonos taškus žemėlapyje.

Perkelti pele per norėdami pamatyti stoties vardą.

Tada spustelėkite, norėdami matyti oro stebėjimo ir prognozės.

Norėdami pakeisti žemėlapį: spustelėkite ant žalios mygtukų su juodo kryžiaus žemyn,; žalią mygtuką su brūkšneliu, jei norite nutolinti; arba žalių rodyklių gretimoms žemėlapius.


METAR-TAF: